Time,TemperatureF,DewpointF,PressureIn,WindDirection,WindDirectionDegrees,WindSpeedMPH,WindSpeedGustMPH,Humidity,HourlyPrecipIn,Conditions,Clouds,dailyrainin,SoftwareType,DateUTC
2013-03-11 00:00:00,37.4,33.6,30.25,East,89,0.0,2.0,86,0.00,BKN,,0.00,WeatherDisplay:10.37,2013-03-11 04:00:00,
2013-03-11 00:05:00,37.6,33.8,30.25,ENE,65,0.0,2.0,86,0.00,OVC,,0.00,WeatherDisplay:10.37,2013-03-11 04:05:00,
2013-03-11 00:10:00,37.6,33.8,30.25,NE,45,0.0,1.0,86,0.00,OVC,,0.00,WeatherDisplay:10.37,2013-03-11 04:10:00,
2013-03-11 00:15:00,37.6,33.8,30.25,ENE,61,1.0,2.0,86,0.00,OVC,,0.00,WeatherDisplay:10.37,2013-03-11 04:15:00,
2013-03-11 00:20:00,37.6,33.8,30.26,East,89,0.0,1.0,86,0.00,OVC,,0.00,WeatherDisplay:10.37,2013-03-11 04:20:00,
2013-03-11 00:26:00,37.4,33.6,30.25,East,95,1.0,2.0,86,0.00,OVC,,0.00,WeatherDisplay:10.37,2013-03-11 04:26:00,
2013-03-11 00:31:00,37.4,33.6,30.25,ESE,103,1.0,2.0,86,0.00,OVC,,0.00,WeatherDisplay:10.37,2013-03-11 04:31:00,
2013-03-11 00:40:00,37.4,33.6,30.25,ENE,58,0.0,1.0,86,0.00,OVC,,0.00,WeatherDisplay:10.37,2013-03-11 04:40:00,
2013-03-11 00:45:00,37.6,33.8,30.24,ENE,67,1.0,2.0,86,0.00,OVC,,0.00,WeatherDisplay:10.37,2013-03-11 04:45:00,
2013-03-11 00:50:00,37.6,34.1,30.24,East,91,0.0,2.0,87,0.00,OVC,,0.00,WeatherDisplay:10.37,2013-03-11 04:50:00,
2013-03-11 00:55:00,37.8,34.2,30.24,East,90,1.0,2.0,87,0.00,OVC,,0.00,WeatherDisplay:10.37,2013-03-11 04:55:00,
2013-03-11 01:00:00,37.9,34.4,30.24,East,90,0.0,2.0,87,0.00,OVC,,0.00,WeatherDisplay:10.37,2013-03-11 05:00:00,
2013-03-11 01:05:00,37.9,34.4,30.23,East,95,1.0,2.0,87,0.00,OVC,,0.00,WeatherDisplay:10.37,2013-03-11 05:05:00,
2013-03-11 01:10:00,37.8,33.9,30.23,East,92,1.0,3.0,86,0.00,OVC,,0.00,WeatherDisplay:10.37,2013-03-11 05:10:00,
2013-03-11 01:15:00,37.8,33.9,30.23,East,93,1.0,2.0,86,0.00,OVC,,0.00,WeatherDisplay:10.37,2013-03-11 05:15:00,
2013-03-11 01:20:00,37.8,33.9,30.23,East,88,1.0,2.0,86,0.00,OVC,,0.00,WeatherDisplay:10.37,2013-03-11 05:20:00,
2013-03-11 01:25:00,37.8,34.2,30.23,East,88,1.0,3.0,87,0.00,OVC,,0.00,WeatherDisplay:10.37,2013-03-11 05:25:00,
2013-03-11 01:30:00,37.8,34.2,30.23,East,94,1.0,2.0,87,0.00,OVC,,0.00,WeatherDisplay:10.37,2013-03-11 05:30:00,
2013-03-11 01:35:00,37.8,34.2,30.23,East,89,1.0,3.0,87,0.00,OVC,,0.00,WeatherDisplay:10.37,2013-03-11 05:35:00,
2013-03-11 01:40:00,37.8,34.2,30.22,East,90,1.0,5.0,87,0.00,OVC,,0.00,WeatherDisplay:10.37,2013-03-11 05:40:00,
2013-03-11 01:45:00,37.8,34.2,30.22,East,92,1.0,3.0,87,0.00,OVC,,0.00,WeatherDisplay:10.37,2013-03-11 05:45:00,
2013-03-11 01:50:00,37.8,34.3,30.22,East,97,0.0,2.0,87,0.00,OVC,,0.00,WeatherDisplay:10.37,2013-03-11 05:50:00,
2013-03-11 01:55:00,37.9,34.4,30.23,ESE,107,1.0,2.0,87,0.00,OVC,,0.00,WeatherDisplay:10.37,2013-03-11 05:55:00,
2013-03-11 02:00:00,37.9,34.4,30.23,East,88,1.0,2.0,87,0.00,OVC,,0.00,WeatherDisplay:10.37,2013-03-11 06:00:00,
2013-03-11 02:05:00,38.1,34.6,30.23,ENE,69,0.0,2.0,87,0.00,OVC,,0.00,WeatherDisplay:10.37,2013-03-11 06:05:00,
2013-03-11 02:10:00,38.1,34.6,30.23,East,85,0.0,1.0,87,0.00,OVC,,0.00,WeatherDisplay:10.37,2013-03-11 06:10:00,
2013-03-11 02:20:00,38.3,34.8,30.23,ENE,58,1.0,2.0,87,0.00,OVC,,0.00,WeatherDisplay:10.37,2013-03-11 06:20:00,
2013-03-11 02:25:00,38.3,34.8,30.22,ENE,62,1.0,2.0,87,0.00,OVC,,0.00,WeatherDisplay:10.37,2013-03-11 06:25:00,
2013-03-11 02:30:00,38.3,34.8,30.22,ENE,69,2.0,3.0,87,0.00,OVC,,0.00,WeatherDisplay:10.37,2013-03-11 06:30:00,
2013-03-11 02:35:00,38.3,34.8,30.22,East,81,1.0,3.0,87,0.00,OVC,,0.00,WeatherDisplay:10.37,2013-03-11 06:35:00,
2013-03-11 02:40:00,38.3,34.8,30.21,ESE,104,1.0,3.0,87,0.00,OVC,,0.00,WeatherDisplay:10.37,2013-03-11 06:40:00,
2013-03-11 02:45:00,38.1,34.6,30.21,ESE,109,1.0,3.0,87,0.00,OVC,,0.00,WeatherDisplay:10.37,2013-03-11 06:45:00,
2013-03-11 02:50:00,38.1,34.6,30.22,ESE,110,0.0,2.0,87,0.00,OVC,,0.00,WeatherDisplay:10.37,2013-03-11 06:50:00,
2013-03-11 02:55:00,38.1,34.6,30.21,East,100,1.0,2.0,87,0.00,OVC,,0.00,WeatherDisplay:10.37,2013-03-11 06:55:00,
2013-03-11 03:00:00,38.1,34.6,30.21,ESE,105,0.0,2.0,87,0.00,OVC,,0.00,WeatherDisplay:10.37,2013-03-11 07:00:00,
2013-03-11 03:05:00,38.1,34.9,30.21,ESE,108,1.0,2.0,88,0.00,OVC,,0.00,WeatherDisplay:10.37,2013-03-11 07:05:00,
2013-03-11 03:10:00,38.3,35.1,30.21,East,91,0.0,1.0,88,0.00,OVC,,0.00,WeatherDisplay:10.37,2013-03-11 07:10:00,
2013-03-11 03:15:00,38.3,35.1,30.21,East,90,0.0,1.0,88,0.00,OVC,,0.00,WeatherDisplay:10.37,2013-03-11 07:15:00,
2013-03-11 03:20:00,38.3,35.1,30.21,East,90,0.0,2.0,88,0.00,OVC,,0.00,WeatherDisplay:10.37,2013-03-11 07:20:00,
2013-03-11 03:25:00,38.3,35.1,30.20,East,89,1.0,3.0,88,0.00,OVC,,0.00,WeatherDisplay:10.37,2013-03-11 07:25:00,
2013-03-11 03:30:00,38.3,35.1,30.20,East,81,1.0,3.0,88,0.00,OVC,,0.00,WeatherDisplay:10.37,2013-03-11 07:30:00,
2013-03-11 03:35:00,38.3,35.1,30.20,East,80,1.0,2.0,88,0.00,OVC,,0.00,WeatherDisplay:10.37,2013-03-11 07:35:00,
2013-03-11 03:40:00,38.3,35.1,30.19,East,94,1.0,4.0,88,0.00,OVC,,0.00,WeatherDisplay:10.37,2013-03-11 07:40:00,
2013-03-11 03:45:00,38.3,35.1,30.20,East,96,1.0,2.0,88,0.00,OVC,,0.00,WeatherDisplay:10.37,2013-03-11 07:45:00,
2013-03-11 03:50:00,38.3,35.1,30.19,East,87,1.0,3.0,88,0.00,OVC,,0.00,WeatherDisplay:10.37,2013-03-11 07:50:00,
2013-03-11 03:55:00,38.3,35.1,30.18,East,81,2.0,4.0,88,0.00,OVC,,0.00,WeatherDisplay:10.37,2013-03-11 07:55:00,
2013-03-11 04:00:00,38.3,35.1,30.19,East,89,1.0,4.0,88,0.00,OVC,,0.00,WeatherDisplay:10.37,2013-03-11 08:00:00,
2013-03-11 04:05:00,38.3,35.1,30.19,ESE,110,1.0,2.0,88,0.00,OVC,,0.00,WeatherDisplay:10.37,2013-03-11 08:05:00,
2013-03-11 04:10:00,38.3,35.3,30.19,East,90,0.0,2.0,89,0.00,OVC,,0.00,WeatherDisplay:10.37,2013-03-11 08:10:00,
2013-03-11 04:15:00,38.3,35.3,30.19,East,93,1.0,2.0,89,0.00,OVC,,0.00,WeatherDisplay:10.37,2013-03-11 08:15:00,
2013-03-11 04:20:00,38.3,35.3,30.19,East,83,1.0,2.0,89,0.00,OVC,,0.00,WeatherDisplay:10.37,2013-03-11 08:20:00,
2013-03-11 04:25:00,38.3,35.3,30.19,ENE,73,0.0,2.0,89,0.00,OVC,,0.00,WeatherDisplay:10.37,2013-03-11 08:25:00,
2013-03-11 04:30:00,38.3,35.3,30.18,ENE,78,1.0,2.0,89,0.00,OVC,,0.00,WeatherDisplay:10.37,2013-03-11 08:30:00,
2013-03-11 04:35:00,38.3,35.6,30.19,East,89,0.0,2.0,90,0.00,OVC,,0.00,WeatherDisplay:10.37,2013-03-11 08:35:00,
2013-03-11 04:40:00,38.3,35.6,30.19,East,96,0.0,2.0,90,0.00,OVC,,0.00,WeatherDisplay:10.37,2013-03-11 08:40:00,
2013-03-11 04:45:00,38.3,35.6,30.18,ENE,63,1.0,2.0,90,0.00,OVC,,0.00,WeatherDisplay:10.37,2013-03-11 08:45:00,
2013-03-11 04:50:00,38.3,35.6,30.18,NE,52,0.0,2.0,90,0.00,OVC,,0.00,WeatherDisplay:10.37,2013-03-11 08:50:00,
2013-03-11 04:55:00,38.3,35.6,30.19,NE,51,0.0,2.0,90,0.00,OVC,,0.00,WeatherDisplay:10.37,2013-03-11 08:55:00,
2013-03-11 05:00:00,38.4,36.0,30.18,NE,51,0.0,2.0,91,0.00,OVC,,0.00,WeatherDisplay:10.37,2013-03-11 09:00:00,
2013-03-11 05:05:00,38.5,36.1,30.18,NE,55,0.0,2.0,91,0.00,OVC,,0.00,WeatherDisplay:10.37,2013-03-11 09:05:00,
2013-03-11 05:10:00,38.5,36.1,30.18,ENE,68,1.0,3.0,91,0.00,OVC,,0.00,WeatherDisplay:10.37,2013-03-11 09:10:00,
2013-03-11 05:15:00,38.5,36.1,30.18,ENE,72,1.0,2.0,91,0.00,OVC,,0.00,WeatherDisplay:10.37,2013-03-11 09:15:00,
2013-03-11 05:20:00,38.3,35.9,30.18,ENE,74,0.0,2.0,91,0.00,OVC,,0.00,WeatherDisplay:10.37,2013-03-11 09:20:00,
2013-03-11 05:25:00,38.3,35.9,30.18,East,101,1.0,2.0,91,0.00,OVC,,0.00,WeatherDisplay:10.37,2013-03-11 09:25:00,
2013-03-11 05:30:00,38.3,36.2,30.18,ESE,103,1.0,2.0,92,0.00,OVC,,0.00,WeatherDisplay:10.37,2013-03-11 09:30:00,
2013-03-11 05:35:00,38.3,36.2,30.18,ESE,120,1.0,2.0,92,0.00,OVC,,0.00,WeatherDisplay:10.37,2013-03-11 09:35:00,
2013-03-11 05:40:00,38.3,36.2,30.18,SE,140,1.0,2.0,92,0.00,OVC,,0.00,WeatherDisplay:10.37,2013-03-11 09:40:00,
2013-03-11 05:45:00,38.3,36.2,30.18,ESE,120,1.0,2.0,92,0.00,OVC,,0.00,WeatherDisplay:10.37,2013-03-11 09:45:00,
2013-03-11 05:50:00,38.3,36.5,30.18,East,93,0.0,2.0,93,0.00,OVC,,0.00,WeatherDisplay:10.37,2013-03-11 09:50:00,
2013-03-11 05:55:00,38.3,36.5,30.18,East,95,0.0,2.0,93,0.00,OVC,,0.00,WeatherDisplay:10.37,2013-03-11 09:55:00,
2013-03-11 06:00:00,38.3,36.7,30.17,East,89,1.0,2.0,94,0.00,OVC,,0.00,WeatherDisplay:10.37,2013-03-11 10:00:00,
2013-03-11 06:05:00,38.3,36.7,30.17,East,96,1.0,3.0,94,0.00,OVC,,0.00,WeatherDisplay:10.37,2013-03-11 10:05:00,
2013-03-11 06:10:00,38.3,36.7,30.17,East,97,1.0,2.0,94,0.00,OVC,,0.00,WeatherDisplay:10.37,2013-03-11 10:10:00,
2013-03-11 06:15:00,38.3,36.7,30.17,East,98,0.0,3.0,94,0.00,OVC,,0.00,WeatherDisplay:10.37,2013-03-11 10:15:00,
2013-03-11 06:20:00,38.3,37.0,30.17,ESE,106,0.0,2.0,95,0.00,OVC,,0.00,WeatherDisplay:10.37,2013-03-11 10:20:00,
2013-03-11 06:25:00,38.3,37.0,30.17,ESE,103,0.0,2.0,95,0.00,OVC,,0.00,WeatherDisplay:10.37,2013-03-11 10:25:00,
2013-03-11 06:30:00,38.3,37.0,30.17,East,95,0.0,1.0,95,0.00,OVC,,0.00,WeatherDisplay:10.37,2013-03-11 10:30:00,
2013-03-11 06:35:00,38.5,37.2,30.18,East,90,0.0,1.0,95,0.00,OVC,,0.00,WeatherDisplay:10.37,2013-03-11 10:35:00,
2013-03-11 06:40:00,38.5,37.2,30.18,East,90,0.0,0.0,95,0.00,OVC,,0.00,WeatherDisplay:10.37,2013-03-11 10:40:00,
2013-03-11 06:45:00,38.5,37.2,30.17,East,90,1.0,2.0,95,0.00,OVC,,0.00,WeatherDisplay:10.37,2013-03-11 10:45:00,
2013-03-11 06:50:00,38.7,37.6,30.17,East,87,1.0,2.0,96,0.00,OVC,,0.00,WeatherDisplay:10.37,2013-03-11 10:50:00,
2013-03-11 06:55:00,38.7,37.6,30.17,East,87,0.0,1.0,96,0.00,OVC,,0.00,WeatherDisplay:10.37,2013-03-11 10:55:00,
2013-03-11 07:00:00,38.7,37.6,30.17,East,86,0.0,2.0,96,0.00,OVC,,0.00,WeatherDisplay:10.37,2013-03-11 11:00:00,
2013-03-11 07:05:00,38.8,37.8,30.17,East,84,0.0,2.0,96,0.00,OVC,,0.00,WeatherDisplay:10.37,2013-03-11 11:05:00,
2013-03-11 07:10:00,38.8,37.8,30.17,East,82,1.0,2.0,96,0.00,OVC,,0.00,WeatherDisplay:10.37,2013-03-11 11:10:00,
2013-03-11 07:15:00,38.8,37.8,30.17,East,92,1.0,2.0,96,0.00,OVC,,0.00,WeatherDisplay:10.37,2013-03-11 11:15:00,
2013-03-11 07:20:00,38.7,37.6,30.17,East,100,0.0,2.0,96,0.00,OVC,,0.00,WeatherDisplay:10.37,2013-03-11 11:20:00,
2013-03-11 07:25:00,38.7,37.6,30.17,East,93,1.0,2.0,96,0.00,OVC,,0.00,WeatherDisplay:10.37,2013-03-11 11:25:00,
2013-03-11 07:30:00,38.7,37.6,30.17,ESE,108,1.0,2.0,96,0.00,OVC,,0.00,WeatherDisplay:10.37,2013-03-11 11:30:00,
2013-03-11 07:35:00,38.8,37.8,30.17,East,92,1.0,3.0,96,0.00,OVC,,0.00,WeatherDisplay:10.37,2013-03-11 11:35:00,
2013-03-11 07:40:00,38.8,38.1,30.17,East,95,0.0,3.0,97,0.00,OVC,,0.00,WeatherDisplay:10.37,2013-03-11 11:40:00,
2013-03-11 07:45:00,38.8,38.1,30.17,East,95,1.0,2.0,97,0.00,OVC,,0.00,WeatherDisplay:10.37,2013-03-11 11:45:00,
2013-03-11 07:50:00,38.8,38.1,30.17,ESE,113,1.0,3.0,97,0.00,OVC,,0.00,WeatherDisplay:10.37,2013-03-11 11:50:00,
2013-03-11 07:55:00,38.8,38.1,30.17,SE,128,1.0,3.0,97,0.00,OVC,,0.00,WeatherDisplay:10.37,2013-03-11 11:55:00,
2013-03-11 08:00:00,39.0,38.2,30.17,East,88,0.0,2.0,97,0.00,OVC,,0.00,WeatherDisplay:10.37,2013-03-11 12:00:00,
2013-03-11 08:05:00,39.2,38.2,30.17,East,87,2.0,4.0,96,0.00,OVC,,0.00,WeatherDisplay:10.37,2013-03-11 12:05:00,
2013-03-11 08:10:00,39.2,38.4,30.17,ENE,73,1.0,4.0,97,0.00,OVC,,0.00,WeatherDisplay:10.37,2013-03-11 12:10:00,
2013-03-11 08:15:00,39.4,38.6,30.17,East,79,1.0,2.0,97,0.00,OVC,,0.00,WeatherDisplay:10.37,2013-03-11 12:15:00,
2013-03-11 08:20:00,39.4,38.6,30.17,ESE,107,1.0,3.0,97,0.00,OVC,,0.00,WeatherDisplay:10.37,2013-03-11 12:20:00,
2013-03-11 08:25:00,39.6,38.8,30.18,ESE,102,0.0,3.0,97,0.00,OVC,,0.00,WeatherDisplay:10.37,2013-03-11 12:25:00,
2013-03-11 08:30:00,39.7,39.0,30.18,ENE,65,1.0,2.0,97,0.00,OVC,,0.00,WeatherDisplay:10.37,2013-03-11 12:30:00,
2013-03-11 08:35:00,39.9,39.1,30.18,ENE,59,0.0,2.0,97,0.00,OVC,,0.00,WeatherDisplay:10.37,2013-03-11 12:35:00,
2013-03-11 08:40:00,40.1,39.3,30.18,East,83,0.0,2.0,97,0.00,OVC,,0.00,WeatherDisplay:10.37,2013-03-11 12:40:00,
2013-03-11 08:45:00,40.1,39.6,30.18,ENE,76,0.0,2.0,98,0.00,OVC,,0.00,WeatherDisplay:10.37,2013-03-11 12:45:00,
2013-03-11 08:50:00,40.3,39.8,30.18,ENE,73,0.0,2.0,98,0.00,OVC,,0.00,WeatherDisplay:10.37,2013-03-11 12:50:00,
2013-03-11 08:55:00,40.3,39.8,30.19,SE,126,1.0,2.0,98,0.00,OVC,,0.00,WeatherDisplay:10.37,2013-03-11 12:55:00,
2013-03-11 09:00:00,40.5,39.9,30.19,SE,144,1.0,2.0,98,0.00,OVC,,0.00,WeatherDisplay:10.37,2013-03-11 13:00:00,
2013-03-11 09:05:00,40.6,40.1,30.19,ENE,62,0.0,3.0,98,0.00,OVC,,0.00,WeatherDisplay:10.37,2013-03-11 13:05:00,
2013-03-11 09:10:00,40.9,40.4,30.19,North,354,1.0,3.0,98,0.00,OVC,,0.00,WeatherDisplay:10.37,2013-03-11 13:10:00,
2013-03-11 09:15:00,41.0,40.2,30.20,SW,235,1.0,2.0,97,0.00,OVC,,0.00,WeatherDisplay:10.37,2013-03-11 13:15:00,
2013-03-11 09:20:00,41.0,40.2,30.19,SSW,198,1.0,2.0,97,0.00,OVC,,0.00,WeatherDisplay:10.37,2013-03-11 13:20:00,
2013-03-11 09:30:00,41.2,40.4,30.19,NE,51,1.0,3.0,97,0.00,OVC,,0.00,WeatherDisplay:10.37,2013-03-11 13:30:00,
2013-03-11 09:35:00,41.2,40.4,30.19,NE,52,1.0,2.0,97,0.00,OVC,,0.00,WeatherDisplay:10.37,2013-03-11 13:35:00,
2013-03-11 09:40:00,41.2,40.4,30.18,East,82,3.0,5.0,97,0.00,OVC,,0.00,WeatherDisplay:10.37,2013-03-11 13:40:00,
2013-03-11 09:45:00,41.5,40.8,30.18,East,99,1.0,3.0,97,0.00,OVC,,0.00,WeatherDisplay:10.37,2013-03-11 13:45:00,
2013-03-11 09:50:00,41.5,41.0,30.18,SE,124,1.0,2.0,98,0.00,OVC,,0.00,WeatherDisplay:10.37,2013-03-11 13:50:00,
2013-03-11 09:55:00,42.1,41.6,30.18,ESE,121,2.0,5.0,98,0.00,OVC,,0.00,WeatherDisplay:10.37,2013-03-11 13:55:00,
2013-03-11 10:00:00,42.3,41.7,30.19,ESE,108,1.0,5.0,98,0.00,OVC,,0.00,WeatherDisplay:10.37,2013-03-11 14:00:00,
2013-03-11 10:05:00,42.8,42.0,30.18,East,95,1.0,5.0,97,0.00,OVC,,0.00,WeatherDisplay:10.37,2013-03-11 14:05:00,
2013-03-11 10:10:00,43.2,42.4,30.18,East,91,2.0,4.0,97,0.00,OVC,,0.00,WeatherDisplay:10.37,2013-03-11 14:10:00,
2013-03-11 10:15:00,43.3,42.5,30.18,ESE,103,2.0,6.0,97,0.00,OVC,,0.00,WeatherDisplay:10.37,2013-03-11 14:15:00,
2013-03-11 10:20:00,43.5,43.0,30.18,East,91,1.0,3.0,98,0.00,OVC,,0.00,WeatherDisplay:10.37,2013-03-11 14:20:00,
2013-03-11 10:25:00,43.9,43.1,30.19,ESE,109,1.0,3.0,97,0.00,OVC,,0.00,WeatherDisplay:10.37,2013-03-11 14:25:00,
2013-03-11 10:30:00,44.1,43.3,30.18,South,177,1.0,3.0,97,0.00,OVC,,0.00,WeatherDisplay:10.37,2013-03-11 14:30:00,
2013-03-11 10:35:00,44.1,43.3,30.18,ESE,117,5.0,6.0,97,0.00,OVC,,0.00,WeatherDisplay:10.37,2013-03-11 14:35:00,
2013-03-11 10:40:00,44.2,43.2,30.18,ESE,119,1.0,6.0,96,0.00,OVC,,0.00,WeatherDisplay:10.37,2013-03-11 14:40:00,
2013-03-11 10:50:00,44.4,43.1,30.17,East,101,1.0,7.0,95,0.00,OVC,,0.00,WeatherDisplay:10.37,2013-03-11 14:50:00,
2013-03-11 10:55:00,44.6,43.0,30.17,ESE,104,0.0,4.0,94,0.00,OVC,,0.00,WeatherDisplay:10.37,2013-03-11 14:55:00,
2013-03-11 11:00:00,45.0,43.3,30.17,East,83,2.0,5.0,94,0.00,OVC,,0.00,WeatherDisplay:10.37,2013-03-11 15:00:00,
2013-03-11 11:05:00,45.1,43.2,30.17,East,88,2.0,4.0,93,0.00,OVC,,0.00,WeatherDisplay:10.37,2013-03-11 15:05:00,
2013-03-11 11:10:00,45.3,43.4,30.17,East,101,1.0,2.0,93,0.00,OVC,,0.00,WeatherDisplay:10.37,2013-03-11 15:10:00,
2013-03-11 11:15:00,45.5,43.6,30.17,ESE,116,2.0,4.0,93,0.00,OVC,,0.00,WeatherDisplay:10.37,2013-03-11 15:15:00,
2013-03-11 11:20:00,45.7,43.5,30.17,ESE,106,2.0,6.0,92,0.00,OVC,,0.00,WeatherDisplay:10.37,2013-03-11 15:20:00,
2013-03-11 11:25:00,45.9,43.7,30.17,East,99,2.0,6.0,92,0.00,OVC,,0.00,WeatherDisplay:10.37,2013-03-11 15:25:00,
2013-03-11 11:30:00,46.0,43.6,30.17,ESE,121,2.0,6.0,91,0.00,OVC,,0.00,WeatherDisplay:10.37,2013-03-11 15:30:00,
2013-03-11 11:35:00,46.2,43.7,30.17,SE,135,1.0,4.0,91,0.00,OVC,,0.00,WeatherDisplay:10.37,2013-03-11 15:35:00,
2013-03-11 11:40:00,46.5,43.5,30.17,ESE,123,1.0,6.0,89,0.00,OVC,,0.00,WeatherDisplay:10.37,2013-03-11 15:40:00,
2013-03-11 11:45:00,46.8,43.7,30.17,ESE,118,2.0,6.0,89,0.00,OVC,,0.00,WeatherDisplay:10.37,2013-03-11 15:45:00,
2013-03-11 11:50:00,47.1,44.0,30.17,ENE,71,1.0,6.0,89,0.00,OVC,,0.00,WeatherDisplay:10.37,2013-03-11 15:50:00,
2013-03-11 11:55:00,47.3,44.2,30.16,SE,136,3.0,6.0,89,0.00,OVC,,0.00,WeatherDisplay:10.37,2013-03-11 15:55:00,
2013-03-11 12:00:00,47.3,43.9,30.16,SSE,158,1.0,6.0,88,0.00,OVC,,0.00,WeatherDisplay:10.37,2013-03-11 16:00:00,
2013-03-11 12:05:00,47.5,44.1,30.16,SSE,151,1.0,3.0,88,0.00,OVC,,0.00,WeatherDisplay:10.37,2013-03-11 16:05:00,
2013-03-11 12:10:00,48.0,44.6,30.16,SSE,148,1.0,4.0,88,0.00,OVC,,0.00,WeatherDisplay:10.37,2013-03-11 16:10:00,
2013-03-11 12:15:00,48.4,44.7,30.16,SE,136,2.0,4.0,87,0.00,OVC,,0.00,WeatherDisplay:10.37,2013-03-11 16:15:00,
2013-03-11 12:20:00,48.4,44.4,30.16,South,169,1.0,7.0,86,0.00,OVC,,0.00,WeatherDisplay:10.37,2013-03-11 16:20:00,
2013-03-11 12:25:00,48.8,44.8,30.16,SE,146,3.0,7.0,86,0.00,OVC,,0.00,WeatherDisplay:10.37,2013-03-11 16:25:00,
2013-03-11 12:30:00,49.6,45.6,30.16,SE,132,1.0,7.0,86,0.00,OVC,,0.00,WeatherDisplay:10.37,2013-03-11 16:30:00,
2013-03-11 12:35:00,50.2,45.5,30.15,SE,128,3.0,7.0,84,0.00,OVC,,0.00,WeatherDisplay:10.37,2013-03-11 16:35:00,
2013-03-11 12:40:00,51.0,46.3,30.15,SE,132,3.0,6.0,84,0.00,OVC,,0.00,WeatherDisplay:10.37,2013-03-11 16:40:00,
2013-03-11 12:45:00,51.6,46.0,30.15,SE,133,2.0,8.0,81,0.00,OVC,,0.00,WeatherDisplay:10.37,2013-03-11 16:45:00,
2013-03-11 12:50:00,52.0,45.7,30.14,East,82,1.0,6.0,79,0.00,OVC,,0.00,WeatherDisplay:10.37,2013-03-11 16:50:00,
2013-03-11 13:00:00,52.0,45.7,30.14,NNW,333,1.0,2.0,79,0.00,OVC,,0.00,WeatherDisplay:10.37,2013-03-11 17:00:00,
2013-03-11 13:05:00,52.0,45.7,30.14,North,356,1.0,2.0,79,0.00,OVC,,0.00,WeatherDisplay:10.37,2013-03-11 17:05:00,
2013-03-11 13:10:00,52.0,45.7,30.13,North,0,1.0,2.0,79,0.00,OVC,,0.00,WeatherDisplay:10.37,2013-03-11 17:10:00,
2013-03-11 13:15:00,52.0,45.7,30.13,North,0,1.0,2.0,79,0.00,BKN,,0.00,WeatherDisplay:10.37,2013-03-11 17:15:00,
2013-03-11 13:20:00,52.0,45.7,30.13,North,0,1.0,2.0,79,0.00,BKN,,0.00,WeatherDisplay:10.37,2013-03-11 17:20:00,
2013-03-11 13:25:00,52.0,45.7,30.13,North,0,1.0,2.0,79,0.00,FEW,,0.00,WeatherDisplay:10.37,2013-03-11 17:25:00,
2013-03-11 13:30:00,53.6,44.4,30.13,South,180,5.0,6.0,71,0.00,FEW,,0.00,WeatherDisplay:10.37,2013-03-11 17:30:00,
2013-03-11 13:35:00,53.6,44.4,30.13,South,180,5.0,6.0,71,0.00,FEW,,0.00,WeatherDisplay:10.37,2013-03-11 17:35:00,
2013-03-11 13:40:00,53.6,44.4,30.13,South,174,5.0,6.0,71,0.00,FEW,,0.00,WeatherDisplay:10.37,2013-03-11 17:40:00,
2013-03-11 13:45:00,53.6,44.4,30.13,North,3,5.0,6.0,71,0.00,FEW,,0.00,WeatherDisplay:10.37,2013-03-11 17:45:00,
2013-03-11 13:50:00,53.6,44.4,30.12,North,0,5.0,6.0,71,0.00,FEW,,0.00,WeatherDisplay:10.37,2013-03-11 17:50:00,
2013-03-11 13:55:00,55.0,43.5,30.12,North,0,3.0,6.0,65,0.00,FEW,,0.00,WeatherDisplay:10.37,2013-03-11 17:55:00,
2013-03-11 14:00:00,55.0,43.5,30.12,South,180,3.0,6.0,65,0.00,FEW,,0.00,WeatherDisplay:10.37,2013-03-11 18:00:00,
2013-03-11 14:05:00,55.0,43.5,30.12,East,100,3.0,6.0,65,0.00,FEW,,0.00,WeatherDisplay:10.37,2013-03-11 18:05:00,
2013-03-11 14:10:00,55.0,43.5,30.12,North,4,3.0,6.0,65,0.00,FEW,,0.00,WeatherDisplay:10.37,2013-03-11 18:10:00,
2013-03-11 14:15:00,55.0,43.5,30.11,North,0,3.0,6.0,65,0.00,CLR,,0.00,WeatherDisplay:10.37,2013-03-11 18:15:00,
2013-03-11 14:20:00,55.0,43.5,30.11,North,0,3.0,6.0,65,0.00,CLR,,0.00,WeatherDisplay:10.37,2013-03-11 18:20:00,
2013-03-11 14:26:00,55.0,43.5,30.10,North,0,3.0,6.0,65,0.00,CLR,,0.00,WeatherDisplay:10.37,2013-03-11 18:26:00,
2013-03-11 14:36:00,57.4,43.2,30.09,East,81,3.0,6.0,59,0.00,CLR,,0.00,WeatherDisplay:10.37,2013-03-11 18:36:00,
2013-03-11 14:46:00,57.4,43.2,30.09,NE,49,3.0,6.0,59,0.00,CLR,,0.00,WeatherDisplay:10.37,2013-03-11 18:46:00,
2013-03-11 14:55:00,57.4,43.2,30.08,North,0,3.0,6.0,59,0.00,CLR,,0.00,WeatherDisplay:10.37,2013-03-11 18:55:00,
2013-03-11 15:00:00,57.4,43.2,30.08,North,0,3.0,6.0,59,0.00,CLR,,0.00,WeatherDisplay:10.37,2013-03-11 19:00:00,
2013-03-11 15:05:00,57.4,43.2,30.08,North,0,3.0,6.0,59,0.00,CLR,,0.00,WeatherDisplay:10.37,2013-03-11 19:05:00,
2013-03-11 15:11:00,57.4,43.2,30.08,North,0,3.0,6.0,59,0.00,CLR,,0.00,WeatherDisplay:10.37,2013-03-11 19:11:00,
2013-03-11 15:16:00,57.4,43.2,30.08,North,0,3.0,6.0,59,0.00,CLR,,0.00,WeatherDisplay:10.37,2013-03-11 19:16:00,
2013-03-11 15:21:00,57.4,43.2,30.08,North,0,3.0,6.0,59,0.00,CLR,,0.00,WeatherDisplay:10.37,2013-03-11 19:21:00,
2013-03-11 15:26:00,57.4,43.2,30.08,North,0,3.0,6.0,59,0.00,CLR,,0.00,WeatherDisplay:10.37,2013-03-11 19:26:00,
2013-03-11 15:31:00,57.4,43.2,30.08,North,0,3.0,6.0,59,0.00,CLR,,0.00,WeatherDisplay:10.37,2013-03-11 19:31:00,
2013-03-11 15:36:00,57.4,43.2,30.08,North,0,3.0,6.0,59,0.00,CLR,,0.00,WeatherDisplay:10.37,2013-03-11 19:36:00,
2013-03-11 15:41:00,57.4,43.2,30.07,North,0,3.0,6.0,59,0.00,CLR,,0.00,WeatherDisplay:10.37,2013-03-11 19:41:00,
2013-03-11 15:46:00,57.4,43.2,30.07,North,0,3.0,6.0,59,0.00,CLR,,0.00,WeatherDisplay:10.37,2013-03-11 19:46:00,
2013-03-11 15:51:00,57.4,43.2,30.06,North,0,3.0,6.0,59,0.00,CLR,,0.00,WeatherDisplay:10.37,2013-03-11 19:51:00,
2013-03-11 15:56:00,57.4,43.2,30.06,North,0,3.0,6.0,59,0.00,CLR,,0.00,WeatherDisplay:10.37,2013-03-11 19:56:00,
2013-03-11 16:01:00,57.4,43.2,30.06,North,0,3.0,6.0,59,0.00,CLR,,0.00,WeatherDisplay:10.37,2013-03-11 20:01:00,
2013-03-11 16:06:00,57.4,43.2,30.07,North,0,3.0,6.0,59,0.00,CLR,,0.00,WeatherDisplay:10.37,2013-03-11 20:06:00,
2013-03-11 16:11:00,59.4,42.7,30.06,NE,53,3.0,8.0,54,0.00,CLR,,0.00,WeatherDisplay:10.37,2013-03-11 20:11:00,
2013-03-11 16:16:00,59.2,42.5,30.06,East,95,3.0,6.0,54,0.00,CLR,,0.00,WeatherDisplay:10.37,2013-03-11 20:16:00,
2013-03-11 16:21:00,59.0,42.8,30.06,East,95,3.0,6.0,55,0.00,CLR,,0.00,WeatherDisplay:10.37,2013-03-11 20:21:00,
2013-03-11 16:26:00,58.8,43.6,30.06,ENE,74,5.0,7.0,57,0.00,CLR,,0.00,WeatherDisplay:10.37,2013-03-11 20:26:00,
2013-03-11 16:31:00,58.6,43.9,30.06,ENE,64,3.0,7.0,58,0.00,CLR,,0.00,WeatherDisplay:10.37,2013-03-11 20:31:00,
2013-03-11 16:36:00,58.3,44.0,30.06,East,81,3.0,6.0,59,0.00,CLR,,0.00,WeatherDisplay:10.37,2013-03-11 20:36:00,
2013-03-11 16:41:00,58.1,43.8,30.06,East,93,3.0,8.0,59,0.00,CLR,,0.00,WeatherDisplay:10.37,2013-03-11 20:41:00,
2013-03-11 16:56:00,57.5,45.0,30.05,ENE,69,3.0,7.0,63,0.00,CLR,,0.00,WeatherDisplay:10.37,2013-03-11 20:56:00,
2013-03-11 17:01:00,57.2,45.1,30.05,ENE,68,2.0,7.0,64,0.00,CLR,,0.00,WeatherDisplay:10.37,2013-03-11 21:01:00,
2013-03-11 17:06:00,56.8,45.2,30.05,ENE,78,3.0,8.0,65,0.00,CLR,,0.00,WeatherDisplay:10.37,2013-03-11 21:06:00,
2013-03-11 17:11:00,56.8,45.2,30.05,East,86,3.0,5.0,65,0.00,CLR,,0.00,WeatherDisplay:10.37,2013-03-11 21:11:00,
2013-03-11 17:16:00,56.8,45.2,30.05,East,84,3.0,5.0,65,0.00,CLR,,0.00,WeatherDisplay:10.37,2013-03-11 21:16:00,
2013-03-11 17:21:00,56.8,45.2,30.05,NNE,32,3.0,5.0,65,0.00,CLR,,0.00,WeatherDisplay:10.37,2013-03-11 21:21:00,
2013-03-11 17:31:00,55.9,45.5,30.04,NE,53,2.0,6.0,68,0.00,CLR,,0.00,WeatherDisplay:10.37,2013-03-11 21:31:00,
2013-03-11 17:36:00,55.8,45.4,30.04,NE,54,3.0,8.0,68,0.00,CLR,,0.00,WeatherDisplay:10.37,2013-03-11 21:36:00,
2013-03-11 17:46:00,55.4,45.4,30.04,East,80,3.0,7.0,69,0.00,CLR,,0.00,WeatherDisplay:10.37,2013-03-11 21:46:00,
2013-03-11 17:51:00,55.1,45.9,30.04,ENE,78,3.0,6.0,71,0.00,CLR,,0.00,WeatherDisplay:10.37,2013-03-11 21:51:00,
2013-03-11 18:06:00,54.5,45.3,30.03,East,80,3.0,7.0,71,0.00,CLR,,0.00,WeatherDisplay:10.37,2013-03-11 22:06:00,
2013-03-11 18:21:00,54.0,45.1,30.03,East,83,3.0,6.0,72,0.00,CLR,,0.00,WeatherDisplay:10.37,2013-03-11 22:21:00,
2013-03-11 18:35:00,53.6,45.2,30.03,East,80,3.0,6.0,73,0.00,CLR,,0.00,WeatherDisplay:10.37,2013-03-11 22:35:00,
2013-03-11 18:40:00,53.4,45.3,30.03,East,81,2.0,5.0,74,0.00,CLR,,0.00,WeatherDisplay:10.37,2013-03-11 22:40:00,
2013-03-11 18:45:00,53.2,45.2,30.03,East,93,3.0,6.0,74,0.00,CLR,,0.00,WeatherDisplay:10.37,2013-03-11 22:45:00,
2013-03-11 18:50:00,53.1,45.3,30.03,East,92,2.0,8.0,75,0.00,CLR,,0.00,WeatherDisplay:10.37,2013-03-11 22:50:00,
2013-03-11 18:55:00,52.9,45.2,30.04,ESE,105,1.0,6.0,75,0.00,CLR,,0.00,WeatherDisplay:10.37,2013-03-11 22:55:00,
2013-03-11 19:00:00,52.7,45.0,30.04,East,100,2.0,5.0,75,0.00,CLR,,0.00,WeatherDisplay:10.37,2013-03-11 23:00:00,
2013-03-11 19:05:00,52.5,45.2,30.04,ENE,77,3.0,5.0,76,0.00,CLR,,0.00,WeatherDisplay:10.37,2013-03-11 23:05:00,
2013-03-11 19:10:00,52.3,45.0,30.04,East,90,2.0,5.0,76,0.00,CLR,,0.00,WeatherDisplay:10.37,2013-03-11 23:10:00,
2013-03-11 19:15:00,52.2,45.2,30.04,East,90,3.0,8.0,77,0.00,CLR,,0.00,WeatherDisplay:10.37,2013-03-11 23:15:00,
2013-03-11 19:20:00,52.0,45.0,30.04,ENE,78,3.0,8.0,77,0.00,CLR,,0.00,WeatherDisplay:10.37,2013-03-11 23:20:00,
2013-03-11 19:25:00,51.8,45.2,30.03,East,86,3.0,6.0,78,0.00,CLR,,0.00,WeatherDisplay:10.37,2013-03-11 23:25:00,
2013-03-11 19:30:00,51.6,45.7,30.03,East,96,5.0,8.0,80,0.00,CLR,,0.00,WeatherDisplay:10.37,2013-03-11 23:30:00,
2013-03-11 19:35:00,51.4,45.8,30.03,East,99,2.0,6.0,81,0.00,CLR,,0.00,WeatherDisplay:10.37,2013-03-11 23:35:00,
2013-03-11 19:40:00,51.3,45.6,30.04,East,101,3.0,5.0,81,0.00,CLR,,0.00,WeatherDisplay:10.37,2013-03-11 23:40:00,
2013-03-11 19:45:00,51.3,46.0,30.04,East,101,3.0,6.0,82,0.00,CLR,,0.00,WeatherDisplay:10.37,2013-03-11 23:45:00,
2013-03-11 19:55:00,51.1,45.8,30.05,ESE,107,3.0,6.0,82,0.00,CLR,,0.00,WeatherDisplay:10.37,2013-03-11 23:55:00,
2013-03-11 20:00:00,50.9,45.9,30.05,ESE,107,3.0,7.0,83,0.00,CLR,,0.00,WeatherDisplay:10.37,2013-03-12 00:00:00,
2013-03-11 20:05:00,50.9,45.9,30.05,East,100,5.0,8.0,83,0.00,CLR,,0.00,WeatherDisplay:10.37,2013-03-12 00:05:00,
2013-03-11 20:10:00,50.9,45.9,30.04,East,99,5.0,6.0,83,0.00,CLR,,0.00,WeatherDisplay:10.37,2013-03-12 00:10:00,
2013-03-11 20:15:00,50.7,45.7,30.04,East,99,3.0,7.0,83,0.00,CLR,,0.00,WeatherDisplay:10.37,2013-03-12 00:15:00,
2013-03-11 20:20:00,50.7,45.7,30.05,East,90,2.0,7.0,83,0.00,CLR,,0.00,WeatherDisplay:10.37,2013-03-12 00:20:00,
2013-03-11 20:25:00,50.5,45.6,30.05,East,79,2.0,7.0,83,0.00,CLR,,0.00,WeatherDisplay:10.37,2013-03-12 00:25:00,
2013-03-11 20:30:00,50.4,45.7,30.04,East,87,5.0,6.0,84,0.00,CLR,,0.00,WeatherDisplay:10.37,2013-03-12 00:30:00,
2013-03-11 20:35:00,50.4,45.7,30.04,East,99,2.0,6.0,84,0.00,CLR,,0.00,WeatherDisplay:10.37,2013-03-12 00:35:00,
2013-03-11 20:40:00,50.2,45.5,30.04,East,96,2.0,6.0,84,0.00,CLR,,0.00,WeatherDisplay:10.37,2013-03-12 00:40:00,
2013-03-11 20:45:00,50.0,45.4,30.04,East,86,3.0,6.0,84,0.00,CLR,,0.00,WeatherDisplay:10.37,2013-03-12 00:45:00,
2013-03-11 20:50:00,50.0,45.7,30.03,East,98,2.0,6.0,85,0.00,CLR,,0.00,WeatherDisplay:10.37,2013-03-12 00:50:00,
2013-03-11 20:55:00,50.0,45.7,30.03,ESE,113,2.0,5.0,85,0.00,CLR,,0.00,WeatherDisplay:10.37,2013-03-12 00:55:00,
2013-03-11 21:00:00,50.0,45.7,30.03,ESE,103,2.0,5.0,85,0.00,CLR,,0.00,WeatherDisplay:10.37,2013-03-12 01:00:00,
2013-03-11 21:05:00,49.8,46.1,30.03,East,95,2.0,6.0,87,0.00,BKN,,0.00,WeatherDisplay:10.37,2013-03-12 01:05:00,
2013-03-11 21:10:00,49.8,46.1,30.03,East,95,3.0,6.0,87,0.00,BKN,,0.00,WeatherDisplay:10.37,2013-03-12 01:10:00,
2013-03-11 21:15:00,49.8,46.4,30.03,East,93,3.0,6.0,88,0.00,BKN,,0.00,WeatherDisplay:10.37,2013-03-12 01:15:00,
2013-03-11 21:20:00,49.8,46.7,30.03,ENE,78,2.0,6.0,89,0.00,BKN,,0.00,WeatherDisplay:10.37,2013-03-12 01:20:00,
2013-03-11 21:25:00,49.8,46.7,30.03,East,79,3.0,6.0,89,0.00,BKN,,0.00,WeatherDisplay:10.37,2013-03-12 01:25:00,
2013-03-11 21:30:00,49.8,46.7,30.03,East,93,2.0,6.0,89,0.00,BKN,,0.00,WeatherDisplay:10.37,2013-03-12 01:30:00,
2013-03-11 21:35:00,49.8,47.0,30.03,ESE,102,2.0,6.0,90,0.00,BKN,,0.00,WeatherDisplay:10.37,2013-03-12 01:35:00,
2013-03-11 21:40:00,49.8,47.0,30.03,ESE,103,3.0,6.0,90,0.00,BKN,,0.00,WeatherDisplay:10.37,2013-03-12 01:40:00,
2013-03-11 21:45:00,50.0,47.2,30.03,East,91,3.0,6.0,90,0.00,OVC,,0.00,WeatherDisplay:10.37,2013-03-12 01:45:00,
2013-03-11 21:51:00,50.0,47.2,30.03,East,97,1.0,5.0,90,0.00,OVC,,0.00,WeatherDisplay:10.37,2013-03-12 01:51:00,
2013-03-11 21:56:00,50.0,47.2,30.03,ESE,119,3.0,7.0,90,0.00,OVC,,0.00,WeatherDisplay:10.37,2013-03-12 01:56:00,
2013-03-11 22:01:00,50.0,47.2,30.02,ESE,117,2.0,5.0,90,0.00,OVC,,0.00,WeatherDisplay:10.37,2013-03-12 02:01:00,
2013-03-11 22:06:00,50.0,47.2,30.03,ESE,109,1.0,6.0,90,0.00,OVC,,0.00,WeatherDisplay:10.37,2013-03-12 02:06:00,
2013-03-11 22:11:00,50.0,47.2,30.03,ESE,105,1.0,3.0,90,0.00,OVC,,0.00,WeatherDisplay:10.37,2013-03-12 02:11:00,
2013-03-11 22:16:00,50.2,47.4,30.03,ESE,110,2.0,5.0,90,0.00,OVC,,0.00,WeatherDisplay:10.37,2013-03-12 02:16:00,
2013-03-11 22:26:00,50.4,47.8,30.04,East,98,2.0,5.0,91,0.00,OVC,,0.00,WeatherDisplay:10.37,2013-03-12 02:26:00,
2013-03-11 22:31:00,50.4,47.8,30.04,East,85,1.0,6.0,91,0.00,OVC,,0.00,WeatherDisplay:10.37,2013-03-12 02:31:00,
2013-03-11 22:41:00,50.5,48.0,30.04,ESE,103,1.0,3.0,91,0.00,OVC,,0.00,WeatherDisplay:10.37,2013-03-12 02:41:00,
2013-03-11 22:46:00,50.5,48.0,30.03,East,98,1.0,2.0,91,0.00,OVC,,0.00,WeatherDisplay:10.37,2013-03-12 02:46:00,
2013-03-11 22:51:00,50.5,47.7,30.03,East,94,1.0,4.0,90,0.00,OVC,,0.00,WeatherDisplay:10.37,2013-03-12 02:51:00,
2013-03-11 22:56:00,50.5,47.7,30.03,ESE,120,1.0,2.0,90,0.00,OVC,,0.00,WeatherDisplay:10.37,2013-03-12 02:56:00,
2013-03-11 23:21:00,50.7,47.9,30.03,East,98,2.0,3.0,90,0.00,OVC,,0.00,WeatherDisplay:10.37,2013-03-12 03:21:00,
2013-03-11 23:31:00,50.7,47.9,30.02,East,91,1.0,3.0,90,0.00,OVC,,0.00,WeatherDisplay:10.37,2013-03-12 03:31:00,
2013-03-11 23:41:00,50.7,47.9,30.03,East,94,2.0,4.0,90,0.00,OVC,,0.00,WeatherDisplay:10.37,2013-03-12 03:41:00,
2013-03-11 23:56:00,50.5,47.7,30.02,East,96,1.0,3.0,90,0.00,OVC,,0.00,WeatherDisplay:10.37,2013-03-12 03:56:00,